sensor_id;sensor_type;location;lat;lon;timestamp;P1;durP1;ratioP1;P2;durP2;ratioP2
14153;SDS011;7157;53.144;7.570;2023-09-30T00:06:37;15.48;;;4.50;;
14153;SDS011;7157;53.144;7.570;2023-09-30T00:16:41;15.93;;;4.57;;
14153;SDS011;7157;53.144;7.570;2023-09-30T00:26:44;12.77;;;4.05;;
14153;SDS011;7157;53.144;7.570;2023-09-30T00:36:48;14.35;;;3.40;;
14153;SDS011;7157;53.144;7.570;2023-09-30T00:46:51;15.05;;;2.97;;
14153;SDS011;7157;53.144;7.570;2023-09-30T00:56:57;13.63;;;3.00;;
14153;SDS011;7157;53.144;7.570;2023-09-30T01:07:02;14.75;;;2.80;;
14153;SDS011;7157;53.144;7.570;2023-09-30T01:17:07;8.95;;;2.30;;
14153;SDS011;7157;53.144;7.570;2023-09-30T01:27:14;16.98;;;2.70;;
14153;SDS011;7157;53.144;7.570;2023-09-30T01:37:19;19.13;;;3.22;;
14153;SDS011;7157;53.144;7.570;2023-09-30T01:47:24;14.25;;;3.30;;
14153;SDS011;7157;53.144;7.570;2023-09-30T01:57:26;14.20;;;2.83;;
14153;SDS011;7157;53.144;7.570;2023-09-30T02:07:31;12.57;;;3.00;;
14153;SDS011;7157;53.144;7.570;2023-09-30T02:17:33;13.85;;;2.65;;
14153;SDS011;7157;53.144;7.570;2023-09-30T02:27:37;15.05;;;3.28;;
14153;SDS011;7157;53.144;7.570;2023-09-30T02:37:42;11.50;;;2.70;;
14153;SDS011;7157;53.144;7.570;2023-09-30T02:47:46;9.95;;;3.10;;
14153;SDS011;7157;53.144;7.570;2023-09-30T02:57:49;18.05;;;3.17;;
14153;SDS011;7157;53.144;7.570;2023-09-30T03:07:54;13.10;;;3.10;;
14153;SDS011;7157;53.144;7.570;2023-09-30T03:17:57;15.45;;;3.50;;
14153;SDS011;7157;53.144;7.570;2023-09-30T03:28:03;16.48;;;4.22;;
14153;SDS011;7157;53.144;7.570;2023-09-30T03:38:07;13.50;;;3.40;;
14153;SDS011;7157;53.144;7.570;2023-09-30T03:48:12;8.73;;;2.80;;
14153;SDS011;7157;53.144;7.570;2023-09-30T03:58:15;7.72;;;2.88;;
14153;SDS011;7157;53.144;7.570;2023-09-30T04:08:20;13.52;;;2.78;;
14153;SDS011;7157;53.144;7.570;2023-09-30T04:18:24;14.55;;;3.05;;
14153;SDS011;7157;53.144;7.570;2023-09-30T04:28:28;11.85;;;3.30;;
14153;SDS011;7157;53.144;7.570;2023-09-30T04:38:31;13.15;;;3.58;;
14153;SDS011;7157;53.144;7.570;2023-09-30T04:48:35;19.85;;;3.15;;
14153;SDS011;7157;53.144;7.570;2023-09-30T04:58:38;15.70;;;3.60;;
14153;SDS011;7157;53.144;7.570;2023-09-30T05:08:42;11.77;;;3.47;;
14153;SDS011;7157;53.144;7.570;2023-09-30T05:18:45;11.38;;;3.60;;
14153;SDS011;7157;53.144;7.570;2023-09-30T05:28:50;15.57;;;3.58;;
14153;SDS011;7157;53.144;7.570;2023-09-30T05:38:54;13.55;;;3.95;;
14153;SDS011;7157;53.144;7.570;2023-09-30T05:48:58;14.82;;;4.03;;
14153;SDS011;7157;53.144;7.570;2023-09-30T05:59:01;21.02;;;4.65;;
14153;SDS011;7157;53.144;7.570;2023-09-30T06:09:07;17.52;;;4.30;;
14153;SDS011;7157;53.144;7.570;2023-09-30T06:19:10;13.50;;;4.53;;
14153;SDS011;7157;53.144;7.570;2023-09-30T06:29:14;19.83;;;4.53;;
14153;SDS011;7157;53.144;7.570;2023-09-30T06:39:17;17.73;;;5.35;;
14153;SDS011;7157;53.144;7.570;2023-09-30T06:49:21;20.75;;;5.80;;
14153;SDS011;7157;53.144;7.570;2023-09-30T06:59:25;14.75;;;4.47;;
14153;SDS011;7157;53.144;7.570;2023-09-30T07:09:29;11.60;;;4.53;;
14153;SDS011;7157;53.144;7.570;2023-09-30T07:19:32;13.68;;;4.43;;
14153;SDS011;7157;53.144;7.570;2023-09-30T07:29:36;16.80;;;4.88;;
14153;SDS011;7157;53.144;7.570;2023-09-30T07:39:38;15.85;;;4.28;;
14153;SDS011;7157;53.144;7.570;2023-09-30T07:49:43;14.75;;;4.45;;
14153;SDS011;7157;53.144;7.570;2023-09-30T07:59:45;13.10;;;4.30;;
14153;SDS011;7157;53.144;7.570;2023-09-30T08:09:49;15.02;;;3.90;;
14153;SDS011;7157;53.144;7.570;2023-09-30T08:19:52;10.27;;;3.75;;
14153;SDS011;7157;53.144;7.570;2023-09-30T08:29:56;14.35;;;4.03;;
14153;SDS011;7157;53.144;7.570;2023-09-30T08:39:59;18.45;;;4.13;;
14153;SDS011;7157;53.144;7.570;2023-09-30T08:50:04;11.43;;;4.07;;
14153;SDS011;7157;53.144;7.570;2023-09-30T09:00:12;11.13;;;3.47;;
14153;SDS011;7157;53.144;7.570;2023-09-30T09:10:17;8.70;;;2.67;;
14153;SDS011;7157;53.144;7.570;2023-09-30T09:20:20;9.75;;;2.38;;
14153;SDS011;7157;53.144;7.570;2023-09-30T09:30:26;14.77;;;2.85;;
14153;SDS011;7157;53.144;7.570;2023-09-30T09:40:30;10.38;;;2.50;;
14153;SDS011;7157;53.144;7.570;2023-09-30T09:50:35;10.20;;;1.95;;
14153;SDS011;7157;53.144;7.570;2023-09-30T10:00:39;10.82;;;2.15;;
14153;SDS011;7157;53.144;7.570;2023-09-30T10:10:45;8.82;;;2.40;;
14153;SDS011;7157;53.144;7.570;2023-09-30T10:20:48;7.70;;;2.00;;
14153;SDS011;7157;53.144;7.570;2023-09-30T10:31:11;11.15;;;2.03;;
14153;SDS011;7157;53.144;7.570;2023-09-30T10:51:54;9.07;;;1.88;;
14153;SDS011;7157;53.144;7.570;2023-09-30T11:01:59;6.53;;;1.52;;
14153;SDS011;7157;53.144;7.570;2023-09-30T11:12:04;8.68;;;1.60;;
14153;SDS011;7157;53.144;7.570;2023-09-30T11:22:16;8.75;;;1.88;;
14153;SDS011;7157;53.144;7.570;2023-09-30T11:32:26;9.02;;;1.40;;
14153;SDS011;7157;53.144;7.570;2023-09-30T11:42:30;12.25;;;1.83;;
14153;SDS011;7157;53.144;7.570;2023-09-30T11:52:36;8.00;;;1.50;;
14153;SDS011;7157;53.144;7.570;2023-09-30T12:02:41;14.35;;;1.60;;
14153;SDS011;7157;53.144;7.570;2023-09-30T12:12:46;6.25;;;1.65;;
14153;SDS011;7157;53.144;7.570;2023-09-30T12:22:49;8.68;;;1.50;;
14153;SDS011;7157;53.144;7.570;2023-09-30T12:32:54;11.23;;;2.20;;
14153;SDS011;7157;53.144;7.570;2023-09-30T12:42:58;8.60;;;1.45;;
14153;SDS011;7157;53.144;7.570;2023-09-30T12:53:02;7.88;;;1.30;;
14153;SDS011;7157;53.144;7.570;2023-09-30T13:03:05;10.07;;;2.72;;
14153;SDS011;7157;53.144;7.570;2023-09-30T13:13:10;5.80;;;1.52;;
14153;SDS011;7157;53.144;7.570;2023-09-30T13:23:13;9.05;;;1.85;;
14153;SDS011;7157;53.144;7.570;2023-09-30T13:33:20;6.18;;;2.03;;
14153;SDS011;7157;53.144;7.570;2023-09-30T13:43:22;9.57;;;1.95;;
14153;SDS011;7157;53.144;7.570;2023-09-30T13:53:27;10.73;;;1.83;;
14153;SDS011;7157;53.144;7.570;2023-09-30T14:03:29;8.75;;;1.63;;
14153;SDS011;7157;53.144;7.570;2023-09-30T14:13:34;8.27;;;2.25;;
14153;SDS011;7157;53.144;7.570;2023-09-30T14:23:37;8.32;;;2.00;;
14153;SDS011;7157;53.144;7.570;2023-09-30T14:33:42;7.00;;;1.48;;
14153;SDS011;7157;53.144;7.570;2023-09-30T14:43:44;8.38;;;1.33;;
14153;SDS011;7157;53.144;7.570;2023-09-30T14:53:49;8.32;;;1.63;;
14153;SDS011;7157;53.144;7.570;2023-09-30T15:03:52;7.22;;;1.30;;
14153;SDS011;7157;53.144;7.570;2023-09-30T15:13:56;6.05;;;1.20;;
14153;SDS011;7157;53.144;7.570;2023-09-30T15:23:59;4.57;;;1.45;;
14153;SDS011;7157;53.144;7.570;2023-09-30T15:34:05;7.32;;;1.30;;
14153;SDS011;7157;53.144;7.570;2023-09-30T15:44:09;5.82;;;1.70;;
14153;SDS011;7157;53.144;7.570;2023-09-30T15:54:13;5.18;;;1.58;;
14153;SDS011;7157;53.144;7.570;2023-09-30T16:04:15;7.65;;;1.50;;
14153;SDS011;7157;53.144;7.570;2023-09-30T16:14:20;6.55;;;1.50;;
14153;SDS011;7157;53.144;7.570;2023-09-30T16:24:23;6.75;;;1.77;;
14153;SDS011;7157;53.144;7.570;2023-09-30T16:34:27;5.93;;;1.88;;
14153;SDS011;7157;53.144;7.570;2023-09-30T16:44:30;7.53;;;2.22;;
14153;SDS011;7157;53.144;7.570;2023-09-30T16:54:34;9.27;;;1.88;;
14153;SDS011;7157;53.144;7.570;2023-09-30T17:04:41;10.05;;;2.40;;
14153;SDS011;7157;53.144;7.570;2023-09-30T17:14:45;9.68;;;2.10;;
14153;SDS011;7157;53.144;7.570;2023-09-30T17:24:48;7.00;;;2.58;;
14153;SDS011;7157;53.144;7.570;2023-09-30T17:34:52;14.38;;;3.70;;
14153;SDS011;7157;53.144;7.570;2023-09-30T17:44:55;10.57;;;4.10;;
14153;SDS011;7157;53.144;7.570;2023-09-30T17:54:59;12.20;;;4.80;;
14153;SDS011;7157;53.144;7.570;2023-09-30T18:05:02;12.48;;;4.50;;
14153;SDS011;7157;53.144;7.570;2023-09-30T18:15:08;13.48;;;4.63;;
14153;SDS011;7157;53.144;7.570;2023-09-30T18:25:13;11.88;;;4.45;;
14153;SDS011;7157;53.144;7.570;2023-09-30T18:35:18;13.95;;;5.60;;
14153;SDS011;7157;53.144;7.570;2023-09-30T18:45:20;14.18;;;5.05;;
14153;SDS011;7157;53.144;7.570;2023-09-30T18:55:25;11.23;;;4.93;;
14153;SDS011;7157;53.144;7.570;2023-09-30T19:05:28;11.55;;;5.65;;
14153;SDS011;7157;53.144;7.570;2023-09-30T19:15:32;19.50;;;6.43;;
14153;SDS011;7157;53.144;7.570;2023-09-30T19:25:35;13.60;;;4.53;;
14153;SDS011;7157;53.144;7.570;2023-09-30T19:35:40;13.88;;;4.47;;
14153;SDS011;7157;53.144;7.570;2023-09-30T19:45:43;11.15;;;4.63;;
14153;SDS011;7157;53.144;7.570;2023-09-30T19:55:47;11.15;;;4.25;;
14153;SDS011;7157;53.144;7.570;2023-09-30T20:05:52;16.40;;;4.97;;
14153;SDS011;7157;53.144;7.570;2023-09-30T20:15:56;12.40;;;5.03;;
14153;SDS011;7157;53.144;7.570;2023-09-30T20:26:00;11.82;;;4.47;;
14153;SDS011;7157;53.144;7.570;2023-09-30T20:36:05;11.02;;;4.35;;
14153;SDS011;7157;53.144;7.570;2023-09-30T20:46:08;12.75;;;4.40;;
14153;SDS011;7157;53.144;7.570;2023-09-30T20:56:12;15.07;;;3.67;;
14153;SDS011;7157;53.144;7.570;2023-09-30T21:06:16;14.43;;;3.90;;
14153;SDS011;7157;53.144;7.570;2023-09-30T21:16:20;12.45;;;4.32;;
14153;SDS011;7157;53.144;7.570;2023-09-30T21:26:23;10.88;;;4.45;;
14153;SDS011;7157;53.144;7.570;2023-09-30T21:36:27;11.25;;;4.30;;
14153;SDS011;7157;53.144;7.570;2023-09-30T21:46:30;13.02;;;4.65;;
14153;SDS011;7157;53.144;7.570;2023-09-30T21:56:35;12.35;;;4.35;;
14153;SDS011;7157;53.144;7.570;2023-09-30T22:06:38;9.00;;;4.10;;
14153;SDS011;7157;53.144;7.570;2023-09-30T22:16:42;11.85;;;4.57;;
14153;SDS011;7157;53.144;7.570;2023-09-30T22:26:45;16.48;;;4.72;;
14153;SDS011;7157;53.144;7.570;2023-09-30T22:36:49;12.10;;;3.85;;
14153;SDS011;7157;53.144;7.570;2023-09-30T22:46:52;10.10;;;3.70;;
14153;SDS011;7157;53.144;7.570;2023-09-30T22:56:56;13.98;;;4.57;;
14153;SDS011;7157;53.144;7.570;2023-09-30T23:07:00;12.68;;;3.90;;
14153;SDS011;7157;53.144;7.570;2023-09-30T23:17:07;10.85;;;4.30;;
14153;SDS011;7157;53.144;7.570;2023-09-30T23:37:30;15.52;;;5.75;;
14153;SDS011;7157;53.144;7.570;2023-09-30T23:47:32;14.52;;;6.15;;
14153;SDS011;7157;53.144;7.570;2023-09-30T23:57:53;19.20;;;6.55;;
